sensor_id;sensor_type;location;lat;lon;timestamp;pressure;altitude;pressure_sealevel;temperature;humidity
40992;BME280;29633;49.168;9.848;2023-09-19T00:01:42;96434.88;;;21.85;71.34
40992;BME280;29633;49.168;9.848;2023-09-19T00:04:12;96440.34;;;21.83;71.61
40992;BME280;29633;49.168;9.848;2023-09-19T00:06:38;96442.16;;;21.83;71.45
40992;BME280;29633;49.168;9.848;2023-09-19T00:09:05;96436.69;;;21.84;71.33
40992;BME280;29633;49.168;9.848;2023-09-19T00:11:31;96438.28;;;21.85;71.41
40992;BME280;29633;49.168;9.848;2023-09-19T00:13:57;96435.66;;;21.85;71.00
40992;BME280;29633;49.168;9.848;2023-09-19T00:16:26;96445.41;;;21.85;71.24
40992;BME280;29633;49.168;9.848;2023-09-19T00:18:52;96446.00;;;21.80;71.22
40992;BME280;29633;49.168;9.848;2023-09-19T00:21:18;96444.38;;;21.79;71.23
40992;BME280;29633;49.168;9.848;2023-09-19T00:23:45;96447.03;;;21.79;71.14
40992;BME280;29633;49.168;9.848;2023-09-19T00:26:10;96446.59;;;21.76;71.43
40992;BME280;29633;49.168;9.848;2023-09-19T00:28:36;96440.72;;;21.74;71.34
40992;BME280;29633;49.168;9.848;2023-09-19T00:31:02;96437.06;;;21.75;71.72
40992;BME280;29633;49.168;9.848;2023-09-19T00:33:28;96444.97;;;21.75;71.41
40992;BME280;29633;49.168;9.848;2023-09-19T00:35:57;96441.34;;;21.76;71.63
40992;BME280;29633;49.168;9.848;2023-09-19T00:38:23;96438.69;;;21.76;71.80
40992;BME280;29633;49.168;9.848;2023-09-19T00:40:53;96436.25;;;21.74;71.93
40992;BME280;29633;49.168;9.848;2023-09-19T00:43:20;96438.88;;;21.74;71.70
40992;BME280;29633;49.168;9.848;2023-09-19T00:45:52;96443.75;;;21.71;71.88
40992;BME280;29633;49.168;9.848;2023-09-19T00:48:21;96446.38;;;21.71;71.75
40992;BME280;29633;49.168;9.848;2023-09-19T00:50:47;96455.13;;;21.71;71.83
40992;BME280;29633;49.168;9.848;2023-09-19T00:53:19;96450.66;;;21.72;71.83
40992;BME280;29633;49.168;9.848;2023-09-19T00:55:47;96441.75;;;21.73;71.73
40992;BME280;29633;49.168;9.848;2023-09-19T00:58:13;96450.66;;;21.72;72.07
40992;BME280;29633;49.168;9.848;2023-09-19T01:00:40;96444.38;;;21.73;72.25
40992;BME280;29633;49.168;9.848;2023-09-19T01:03:06;96449.84;;;21.71;72.12
40992;BME280;29633;49.168;9.848;2023-09-19T01:05:34;96447.41;;;21.70;72.49
40992;BME280;29633;49.168;9.848;2023-09-19T01:08:00;96456.34;;;21.69;72.29
40992;BME280;29633;49.168;9.848;2023-09-19T01:10:26;96453.47;;;21.64;72.75
40992;BME280;29633;49.168;9.848;2023-09-19T01:13:23;96459.16;;;21.54;73.03
40992;BME280;29633;49.168;9.848;2023-09-19T01:16:29;96457.09;;;21.49;73.22
40992;BME280;29633;49.168;9.848;2023-09-19T01:22:06;96472.31;;;21.47;72.94
40992;BME280;29633;49.168;9.848;2023-09-19T01:30:42;96467.22;;;21.39;73.54
40992;BME280;29633;49.168;9.848;2023-09-19T01:33:09;96475.13;;;21.39;73.33
40992;BME280;29633;49.168;9.848;2023-09-19T01:35:38;96479.78;;;21.37;73.34
40992;BME280;29633;49.168;9.848;2023-09-19T01:38:08;96481.41;;;21.38;73.48
40992;BME280;29633;49.168;9.848;2023-09-19T01:40:48;96475.94;;;21.40;73.47
40992;BME280;29633;49.168;9.848;2023-09-19T01:43:32;96471.88;;;21.37;73.59
40992;BME280;29633;49.168;9.848;2023-09-19T01:46:40;96478.56;;;21.33;73.97
40992;BME280;29633;49.168;9.848;2023-09-19T01:49:17;96469.63;;;21.34;74.06
40992;BME280;29633;49.168;9.848;2023-09-19T01:54:32;96469.41;;;21.29;73.84
40992;BME280;29633;49.168;9.848;2023-09-19T01:57:28;96480.56;;;21.31;74.00
40992;BME280;29633;49.168;9.848;2023-09-19T02:00:07;96487.06;;;21.29;73.75
40992;BME280;29633;49.168;9.848;2023-09-19T02:02:37;96480.56;;;21.31;74.02
40992;BME280;29633;49.168;9.848;2023-09-19T02:05:04;96483.00;;;21.33;74.15
40992;BME280;29633;49.168;9.848;2023-09-19T02:07:31;96487.47;;;21.32;74.24
40992;BME280;29633;49.168;9.848;2023-09-19T02:09:58;96486.47;;;21.33;74.07
40992;BME280;29633;49.168;9.848;2023-09-19T02:12:26;96487.88;;;21.36;73.90
40992;BME280;29633;49.168;9.848;2023-09-19T02:14:53;96482.44;;;21.37;74.11
40992;BME280;29633;49.168;9.848;2023-09-19T02:17:18;96491.16;;;21.38;73.96
40992;BME280;29633;49.168;9.848;2023-09-19T02:19:45;96485.88;;;21.38;74.01
40992;BME280;29633;49.168;9.848;2023-09-19T02:22:10;96495.22;;;21.40;74.11
40992;BME280;29633;49.168;9.848;2023-09-19T02:24:37;96492.75;;;21.32;73.89
40992;BME280;29633;49.168;9.848;2023-09-19T02:27:04;96499.03;;;21.31;73.99
40992;BME280;29633;49.168;9.848;2023-09-19T02:29:31;96496.78;;;21.28;74.12
40992;BME280;29633;49.168;9.848;2023-09-19T02:31:57;96502.44;;;21.25;74.29
40992;BME280;29633;49.168;9.848;2023-09-19T02:34:23;96499.22;;;21.23;74.03
40992;BME280;29633;49.168;9.848;2023-09-19T02:36:49;96498.19;;;21.24;74.16
40992;BME280;29633;49.168;9.848;2023-09-19T02:39:15;96504.91;;;21.27;73.88
40992;BME280;29633;49.168;9.848;2023-09-19T02:41:40;96510.97;;;21.27;74.33
40992;BME280;29633;49.168;9.848;2023-09-19T02:44:07;96507.31;;;21.28;74.03
40992;BME280;29633;49.168;9.848;2023-09-19T02:46:36;96507.97;;;21.30;74.02
40992;BME280;29633;49.168;9.848;2023-09-19T02:49:03;96515.66;;;21.32;74.16
40992;BME280;29633;49.168;9.848;2023-09-19T02:51:32;96518.50;;;21.30;74.37
40992;BME280;29633;49.168;9.848;2023-09-19T02:54:01;96516.25;;;21.27;74.45
40992;BME280;29633;49.168;9.848;2023-09-19T02:56:28;96525.38;;;21.25;74.47
40992;BME280;29633;49.168;9.848;2023-09-19T02:58:56;96511.38;;;21.24;74.49
40992;BME280;29633;49.168;9.848;2023-09-19T03:01:22;96521.72;;;21.26;74.34
40992;BME280;29633;49.168;9.848;2023-09-19T03:03:48;96517.84;;;21.22;74.45
40992;BME280;29633;49.168;9.848;2023-09-19T03:06:13;96525.16;;;21.20;74.34
40992;BME280;29633;49.168;9.848;2023-09-19T03:08:40;96531.22;;;21.20;74.62
40992;BME280;29633;49.168;9.848;2023-09-19T03:11:07;96529.41;;;21.21;74.51
40992;BME280;29633;49.168;9.848;2023-09-19T03:13:36;96528.56;;;21.20;74.80
40992;BME280;29633;49.168;9.848;2023-09-19T03:16:04;96539.34;;;21.19;74.61
40992;BME280;29633;49.168;9.848;2023-09-19T03:18:34;96530.78;;;21.17;74.53
40992;BME280;29633;49.168;9.848;2023-09-19T03:20:59;96531.19;;;21.14;74.77
40992;BME280;29633;49.168;9.848;2023-09-19T03:23:26;96532.53;;;21.09;74.81
40992;BME280;29633;49.168;9.848;2023-09-19T03:25:53;96534.16;;;21.04;74.67
40992;BME280;29633;49.168;9.848;2023-09-19T03:28:19;96526.44;;;21.02;74.99
40992;BME280;29633;49.168;9.848;2023-09-19T03:31:04;96533.09;;;20.98;75.02
40992;BME280;29633;49.168;9.848;2023-09-19T03:33:30;96534.53;;;21.01;75.02
40992;BME280;29633;49.168;9.848;2023-09-19T03:36:01;96537.78;;;21.03;74.82
40992;BME280;29633;49.168;9.848;2023-09-19T03:38:30;96537.19;;;21.01;74.59
40992;BME280;29633;49.168;9.848;2023-09-19T03:40:57;96541.63;;;21.00;74.86
40992;BME280;29633;49.168;9.848;2023-09-19T03:43:22;96542.19;;;20.96;74.86
40992;BME280;29633;49.168;9.848;2023-09-19T03:45:50;96540.56;;;20.95;74.91
40992;BME280;29633;49.168;9.848;2023-09-19T03:48:20;96544.81;;;20.89;75.08
40992;BME280;29633;49.168;9.848;2023-09-19T03:50:47;96537.91;;;20.88;74.85
40992;BME280;29633;49.168;9.848;2023-09-19T03:53:13;96543.97;;;20.89;74.88
40992;BME280;29633;49.168;9.848;2023-09-19T03:55:39;96549.88;;;20.91;74.98
40992;BME280;29633;49.168;9.848;2023-09-19T03:58:05;96551.72;;;20.90;74.73
40992;BME280;29633;49.168;9.848;2023-09-19T04:00:31;96548.28;;;20.96;74.94
40992;BME280;29633;49.168;9.848;2023-09-19T04:02:57;96541.81;;;20.99;74.67
40992;BME280;29633;49.168;9.848;2023-09-19T04:05:23;96541.63;;;21.00;74.54
40992;BME280;29633;49.168;9.848;2023-09-19T04:07:49;96539.59;;;21.02;74.81
40992;BME280;29633;49.168;9.848;2023-09-19T04:10:19;96544.06;;;21.02;74.84
40992;BME280;29633;49.168;9.848;2023-09-19T04:12:55;96545.91;;;21.01;74.35
40992;BME280;29633;49.168;9.848;2023-09-19T04:15:22;96544.31;;;21.07;74.39
40992;BME280;29633;49.168;9.848;2023-09-19T04:17:49;96540.03;;;21.06;74.55
40992;BME280;29633;49.168;9.848;2023-09-19T04:20:17;96544.91;;;21.09;74.59
40992;BME280;29633;49.168;9.848;2023-09-19T04:22:43;96553.47;;;21.11;74.56
40992;BME280;29633;49.168;9.848;2023-09-19T04:25:09;96554.72;;;21.15;74.23
40992;BME280;29633;49.168;9.848;2023-09-19T04:27:35;96554.66;;;21.08;74.79
40992;BME280;29633;49.168;9.848;2023-09-19T04:30:01;96560.50;;;21.04;74.54
40992;BME280;29633;49.168;9.848;2023-09-19T04:32:29;96563.53;;;21.01;74.59
40992;BME280;29633;49.168;9.848;2023-09-19T04:34:57;96557.22;;;21.02;74.77
40992;BME280;29633;49.168;9.848;2023-09-19T04:37:26;96560.50;;;21.04;74.62
40992;BME280;29633;49.168;9.848;2023-09-19T04:39:51;96568.41;;;21.04;74.75
40992;BME280;29633;49.168;9.848;2023-09-19T04:42:17;96574.50;;;21.04;74.47
40992;BME280;29633;49.168;9.848;2023-09-19T04:44:43;96576.31;;;21.04;74.96
40992;BME280;29633;49.168;9.848;2023-09-19T04:47:09;96577.13;;;21.04;74.72
40992;BME280;29633;49.168;9.848;2023-09-19T04:49:35;96578.75;;;21.05;74.63
40992;BME280;29633;49.168;9.848;2023-09-19T04:52:01;96576.53;;;21.09;74.87
40992;BME280;29633;49.168;9.848;2023-09-19T04:54:27;96579.19;;;21.09;74.99
40992;BME280;29633;49.168;9.848;2023-09-19T04:56:53;96586.38;;;21.15;74.31
40992;BME280;29633;49.168;9.848;2023-09-19T04:59:18;96592.88;;;21.19;74.72
40992;BME280;29633;49.168;9.848;2023-09-19T05:01:44;96593.69;;;21.20;74.87
40992;BME280;29633;49.168;9.848;2023-09-19T05:04:10;96600.41;;;21.22;74.37
40992;BME280;29633;49.168;9.848;2023-09-19T05:06:35;96600.56;;;21.21;74.71
40992;BME280;29633;49.168;9.848;2023-09-19T05:09:01;96596.13;;;21.21;74.61
40992;BME280;29633;49.168;9.848;2023-09-19T05:11:27;96603.22;;;21.21;74.75
40992;BME280;29633;49.168;9.848;2023-09-19T05:13:55;96607.50;;;21.22;74.68
40992;BME280;29633;49.168;9.848;2023-09-19T05:16:21;96607.50;;;21.22;74.68
40992;BME280;29633;49.168;9.848;2023-09-19T05:18:47;96608.09;;;21.24;74.31
40992;BME280;29633;49.168;9.848;2023-09-19T05:21:13;96609.13;;;21.23;74.55
40992;BME280;29633;49.168;9.848;2023-09-19T05:23:39;96609.94;;;21.23;74.44
40992;BME280;29633;49.168;9.848;2023-09-19T05:26:05;96611.94;;;21.21;74.25
40992;BME280;29633;49.168;9.848;2023-09-19T05:28:30;96611.94;;;21.21;74.35
40992;BME280;29633;49.168;9.848;2023-09-19T05:31:03;96612.16;;;21.20;74.66
40992;BME280;29633;49.168;9.848;2023-09-19T05:33:28;96622.06;;;21.18;74.55
40992;BME280;29633;49.168;9.848;2023-09-19T05:35:56;96617.59;;;21.18;74.39
40992;BME280;29633;49.168;9.848;2023-09-19T05:38:22;96615.53;;;21.14;74.48
40992;BME280;29633;49.168;9.848;2023-09-19T05:40:48;96625.84;;;21.08;74.41
40992;BME280;29633;49.168;9.848;2023-09-19T05:43:14;96627.41;;;21.03;74.29
40992;BME280;29633;49.168;9.848;2023-09-19T05:45:40;96625.53;;;20.97;74.23
40992;BME280;29633;49.168;9.848;2023-09-19T05:48:11;96622.22;;;20.88;74.73
40992;BME280;29633;49.168;9.848;2023-09-19T05:50:39;96628.88;;;20.84;74.59
40992;BME280;29633;49.168;9.848;2023-09-19T05:53:05;96630.91;;;20.82;74.67
40992;BME280;29633;49.168;9.848;2023-09-19T05:55:32;96636.53;;;20.79;74.70
40992;BME280;29633;49.168;9.848;2023-09-19T05:57:58;96632.88;;;20.80;75.03
40992;BME280;29633;49.168;9.848;2023-09-19T06:00:25;96638.38;;;20.79;74.79
40992;BME280;29633;49.168;9.848;2023-09-19T06:02:53;96635.53;;;20.80;75.03
40992;BME280;29633;49.168;9.848;2023-09-19T06:05:21;96642.88;;;20.85;75.00
40992;BME280;29633;49.168;9.848;2023-09-19T06:07:47;96652.19;;;20.87;74.87
40992;BME280;29633;49.168;9.848;2023-09-19T06:10:13;96653.84;;;20.88;74.92
40992;BME280;29633;49.168;9.848;2023-09-19T06:12:41;96663.56;;;20.88;74.96
40992;BME280;29633;49.168;9.848;2023-09-19T06:15:12;96665.19;;;20.89;74.91
40992;BME280;29633;49.168;9.848;2023-09-19T06:17:53;96664.00;;;20.91;74.82
40992;BME280;29633;49.168;9.848;2023-09-19T06:20:23;96663.81;;;20.93;74.88
40992;BME280;29633;49.168;9.848;2023-09-19T06:22:50;96667.72;;;20.97;74.49
40992;BME280;29633;49.168;9.848;2023-09-19T06:25:16;96677.88;;;21.00;74.72
40992;BME280;29633;49.168;9.848;2023-09-19T06:27:52;96673.34;;;20.94;74.52
40992;BME280;29633;49.168;9.848;2023-09-19T06:30:20;96673.41;;;21.00;74.55
40992;BME280;29633;49.168;9.848;2023-09-19T06:32:46;96674.47;;;21.06;74.21
40992;BME280;29633;49.168;9.848;2023-09-19T06:35:14;96675.09;;;21.08;74.18
40992;BME280;29633;49.168;9.848;2023-09-19T06:37:41;96682.78;;;21.09;74.17
40992;BME280;29633;49.168;9.848;2023-09-19T06:40:10;96681.97;;;21.09;73.95
40992;BME280;29633;49.168;9.848;2023-09-19T06:42:45;96678.34;;;21.10;73.88
40992;BME280;29633;49.168;9.848;2023-09-19T06:45:14;96672.84;;;21.05;74.21
40992;BME280;29633;49.168;9.848;2023-09-19T06:47:48;96679.13;;;21.04;73.80
40992;BME280;29633;49.168;9.848;2023-09-19T06:50:18;96685.22;;;21.04;73.64
40992;BME280;29633;49.168;9.848;2023-09-19T06:52:46;96687.63;;;21.06;74.03
40992;BME280;29633;49.168;9.848;2023-09-19T06:55:19;96682.38;;;21.06;73.86
40992;BME280;29633;49.168;9.848;2023-09-19T06:57:49;96690.56;;;21.11;73.66
40992;BME280;29633;49.168;9.848;2023-09-19T07:00:16;96701.09;;;21.11;73.76
40992;BME280;29633;49.168;9.848;2023-09-19T07:03:04;96701.09;;;21.11;73.65
40992;BME280;29633;49.168;9.848;2023-09-19T07:05:34;96698.91;;;21.15;73.89
40992;BME280;29633;49.168;9.848;2023-09-19T07:08:09;96705.22;;;21.20;73.61
40992;BME280;29633;49.168;9.848;2023-09-19T07:10:38;96704.47;;;21.26;73.66
40992;BME280;29633;49.168;9.848;2023-09-19T07:13:07;96699.19;;;21.26;73.53
40992;BME280;29633;49.168;9.848;2023-09-19T07:15:38;96703.25;;;21.29;73.37
40992;BME280;29633;49.168;9.848;2023-09-19T07:18:06;96702.50;;;21.35;73.00
40992;BME280;29633;49.168;9.848;2023-09-19T07:20:32;96693.16;;;21.32;73.02
40992;BME280;29633;49.168;9.848;2023-09-19T07:23:00;96701.06;;;21.32;72.85
40992;BME280;29633;49.168;9.848;2023-09-19T07:25:29;96708.97;;;21.32;73.08
40992;BME280;29633;49.168;9.848;2023-09-19T07:27:59;96706.94;;;21.34;73.26
40992;BME280;29633;49.168;9.848;2023-09-19T07:30:26;96706.59;;;21.37;73.13
40992;BME280;29633;49.168;9.848;2023-09-19T07:32:52;96711.47;;;21.40;73.15
40992;BME280;29633;49.168;9.848;2023-09-19T07:35:18;96723.28;;;21.44;72.97
40992;BME280;29633;49.168;9.848;2023-09-19T07:37:46;96721.06;;;21.48;72.86
40992;BME280;29633;49.168;9.848;2023-09-19T07:40:16;96728.03;;;21.55;72.67
40992;BME280;29633;49.168;9.848;2023-09-19T07:42:42;96731.09;;;21.59;72.72
40992;BME280;29633;49.168;9.848;2023-09-19T07:45:10;96741.69;;;21.66;72.60
40992;BME280;29633;49.168;9.848;2023-09-19T07:47:45;96725.50;;;21.75;72.41
40992;BME280;29633;49.168;9.848;2023-09-19T07:50:11;96731.44;;;21.84;72.65
40992;BME280;29633;49.168;9.848;2023-09-19T07:52:37;96746.78;;;21.95;72.26
40992;BME280;29633;49.168;9.848;2023-09-19T07:55:06;96728.94;;;22.03;71.88
40992;BME280;29633;49.168;9.848;2023-09-19T07:57:37;96735.03;;;22.04;72.43
40992;BME280;29633;49.168;9.848;2023-09-19T08:00:03;96741.00;;;22.19;71.68
40992;BME280;29633;49.168;9.848;2023-09-19T08:02:35;96738.38;;;22.26;71.55
40992;BME280;29633;49.168;9.848;2023-09-19T08:05:00;96753.03;;;22.28;71.24
40992;BME280;29633;49.168;9.848;2023-09-19T08:07:26;96751.00;;;22.30;71.33
40992;BME280;29633;49.168;9.848;2023-09-19T08:09:54;96756.28;;;22.30;70.62
40992;BME280;29633;49.168;9.848;2023-09-19T08:12:19;96760.56;;;22.31;70.75
40992;BME280;29633;49.168;9.848;2023-09-19T08:14:49;96763.22;;;22.31;70.45
40992;BME280;29633;49.168;9.848;2023-09-19T08:17:16;96776.19;;;22.33;70.33
40992;BME280;29633;49.168;9.848;2023-09-19T08:19:42;96779.88;;;22.32;69.92
40992;BME280;29633;49.168;9.848;2023-09-19T08:22:10;96778.22;;;22.31;69.40
40992;BME280;29633;49.168;9.848;2023-09-19T08:24:36;96787.75;;;22.25;69.47
40992;BME280;29633;49.168;9.848;2023-09-19T08:27:04;96790.78;;;22.22;69.28
40992;BME280;29633;49.168;9.848;2023-09-19T08:29:31;96785.88;;;22.19;69.18
40992;BME280;29633;49.168;9.848;2023-09-19T08:31:57;96784.03;;;22.13;68.87
40992;BME280;29633;49.168;9.848;2023-09-19T08:34:24;96791.13;;;22.13;68.89
40992;BME280;29633;49.168;9.848;2023-09-19T08:36:54;96786.03;;;22.11;68.68
40992;BME280;29633;49.168;9.848;2023-09-19T08:39:24;96785.44;;;22.09;68.77
40992;BME280;29633;49.168;9.848;2023-09-19T08:41:58;96793.13;;;22.11;68.50
40992;BME280;29633;49.168;9.848;2023-09-19T08:44:25;96791.09;;;22.06;68.31
40992;BME280;29633;49.168;9.848;2023-09-19T08:46:55;96789.28;;;22.06;67.92
40992;BME280;29633;49.168;9.848;2023-09-19T08:49:38;96800.28;;;22.10;68.05
40992;BME280;29633;49.168;9.848;2023-09-19T08:52:22;96798.50;;;22.17;67.95
40992;BME280;29633;49.168;9.848;2023-09-19T08:54:52;96803.38;;;22.20;67.94
40992;BME280;29633;49.168;9.848;2023-09-19T08:57:23;96800.75;;;22.27;67.63
40992;BME280;29633;49.168;9.848;2023-09-19T08:59:49;96800.59;;;22.35;67.38
40992;BME280;29633;49.168;9.848;2023-09-19T09:02:17;96809.56;;;22.40;67.25
40992;BME280;29633;49.168;9.848;2023-09-19T09:04:45;96806.53;;;22.43;67.09
40992;BME280;29633;49.168;9.848;2023-09-19T09:07:13;96806.34;;;22.45;66.64
40992;BME280;29633;49.168;9.848;2023-09-19T09:09:40;96803.47;;;22.46;66.74
40992;BME280;29633;49.168;9.848;2023-09-19T09:12:13;96804.72;;;22.50;67.11
40992;BME280;29633;49.168;9.848;2023-09-19T09:14:44;96808.03;;;22.59;66.98
40992;BME280;29633;49.168;9.848;2023-09-19T09:17:10;96805.66;;;22.71;66.83
40992;BME280;29633;49.168;9.848;2023-09-19T09:19:40;96807.75;;;22.82;66.57
40992;BME280;29633;49.168;9.848;2023-09-19T09:22:11;96804.72;;;22.91;66.26
40992;BME280;29633;49.168;9.848;2023-09-19T09:24:51;96811.22;;;22.95;66.04
40992;BME280;29633;49.168;9.848;2023-09-19T09:27:20;96812.88;;;23.03;66.35
40992;BME280;29633;49.168;9.848;2023-09-19T09:29:48;96817.59;;;23.14;65.77
40992;BME280;29633;49.168;9.848;2023-09-19T09:32:21;96811.25;;;23.15;65.30
40992;BME280;29633;49.168;9.848;2023-09-19T09:34:53;96813.72;;;23.17;65.06
40992;BME280;29633;49.168;9.848;2023-09-19T09:37:21;96816.94;;;23.12;65.25
40992;BME280;29633;49.168;9.848;2023-09-19T09:39:57;96815.53;;;23.16;65.25
40992;BME280;29633;49.168;9.848;2023-09-19T09:42:35;96813.13;;;23.21;65.09
40992;BME280;29633;49.168;9.848;2023-09-19T09:47:47;96807.44;;;23.24;64.66
40992;BME280;29633;49.168;9.848;2023-09-19T09:50:36;96804.78;;;23.24;64.48
40992;BME280;29633;49.168;9.848;2023-09-19T09:53:28;96811.28;;;23.22;64.49
40992;BME280;29633;49.168;9.848;2023-09-19T09:56:09;96812.50;;;23.19;64.01
40992;BME280;29633;49.168;9.848;2023-09-19T10:01:13;96799.72;;;23.29;64.07
40992;BME280;29633;49.168;9.848;2023-09-19T10:03:42;96799.75;;;23.42;64.00
40992;BME280;29633;49.168;9.848;2023-09-19T10:06:16;96800.56;;;23.56;63.46
40992;BME280;29633;49.168;9.848;2023-09-19T10:09:08;96799.13;;;23.67;63.08
40992;BME280;29633;49.168;9.848;2023-09-19T10:11:46;96799.31;;;23.78;63.06
40992;BME280;29633;49.168;9.848;2023-09-19T10:14:15;96788.31;;;23.81;62.83
40992;BME280;29633;49.168;9.848;2023-09-19T10:16:53;96789.97;;;23.82;62.95
40992;BME280;29633;49.168;9.848;2023-09-19T10:19:58;96797.88;;;23.89;63.00
40992;BME280;29633;49.168;9.848;2023-09-19T10:22:26;96803.41;;;23.94;62.84
40992;BME280;29633;49.168;9.848;2023-09-19T10:24:53;96811.72;;;24.04;62.78
40992;BME280;29633;49.168;9.848;2023-09-19T10:27:21;96810.88;;;24.10;62.70
40992;BME280;29633;49.168;9.848;2023-09-19T10:29:52;96809.66;;;24.06;62.35
40992;BME280;29633;49.168;9.848;2023-09-19T10:32:23;96810.09;;;24.03;62.76
40992;BME280;29633;49.168;9.848;2023-09-19T10:34:51;96813.75;;;24.02;62.01
40992;BME280;29633;49.168;9.848;2023-09-19T10:37:23;96817.22;;;24.02;61.77
40992;BME280;29633;49.168;9.848;2023-09-19T10:39:52;96811.31;;;24.00;61.60
40992;BME280;29633;49.168;9.848;2023-09-19T10:42:20;96821.09;;;24.00;61.70
40992;BME280;29633;49.168;9.848;2023-09-19T10:44:51;96807.66;;;23.95;61.75
40992;BME280;29633;49.168;9.848;2023-09-19T10:47:20;96819.03;;;24.02;61.54
40992;BME280;29633;49.168;9.848;2023-09-19T10:49:49;96816.00;;;24.05;61.65
40992;BME280;29633;49.168;9.848;2023-09-19T10:52:21;96820.25;;;24.06;61.33
40992;BME280;29633;49.168;9.848;2023-09-19T10:54:51;96818.84;;;24.03;61.39
40992;BME280;29633;49.168;9.848;2023-09-19T10:57:23;96815.38;;;24.03;61.25
40992;BME280;29633;49.168;9.848;2023-09-19T11:00:06;96806.22;;;23.99;61.30
40992;BME280;29633;49.168;9.848;2023-09-19T11:03:27;96811.53;;;23.86;61.59
40992;BME280;29633;49.168;9.848;2023-09-19T11:09:01;96813.38;;;23.85;61.47
40992;BME280;29633;49.168;9.848;2023-09-19T11:11:49;96813.78;;;23.89;61.67
40992;BME280;29633;49.168;9.848;2023-09-19T11:30:50;96787.25;;;24.28;61.28
40992;BME280;29633;49.168;9.848;2023-09-19T11:36:15;96782.44;;;24.57;61.40
40992;BME280;29633;49.168;9.848;2023-09-19T11:46:34;96778.22;;;24.93;60.31
40992;BME280;29633;49.168;9.848;2023-09-19T11:49:17;96785.13;;;25.01;59.97
40992;BME280;29633;49.168;9.848;2023-09-19T11:51:51;96783.47;;;25.07;60.16
40992;BME280;29633;49.168;9.848;2023-09-19T11:54:20;96785.03;;;25.14;59.75
40992;BME280;29633;49.168;9.848;2023-09-19T11:56:53;96783.56;;;25.25;59.59
40992;BME280;29633;49.168;9.848;2023-09-19T11:59:24;96784.09;;;25.33;59.56
40992;BME280;29633;49.168;9.848;2023-09-19T12:01:56;96777.91;;;25.39;59.11
40992;BME280;29633;49.168;9.848;2023-09-19T12:07:08;96782.56;;;25.44;58.54
40992;BME280;29633;49.168;9.848;2023-09-19T12:09:45;96781.19;;;25.41;58.25
40992;BME280;29633;49.168;9.848;2023-09-19T12:12:26;96775.88;;;25.41;58.14
40992;BME280;29633;49.168;9.848;2023-09-19T12:14:53;96773.16;;;25.48;58.35
40992;BME280;29633;49.168;9.848;2023-09-19T12:17:20;96780.91;;;25.50;58.55
40992;BME280;29633;49.168;9.848;2023-09-19T12:19:56;96780.72;;;25.51;58.18
40992;BME280;29633;49.168;9.848;2023-09-19T12:22:22;96768.88;;;25.54;58.62
40992;BME280;29633;49.168;9.848;2023-09-19T12:24:48;96768.19;;;25.58;58.38
40992;BME280;29633;49.168;9.848;2023-09-19T12:27:16;96749.94;;;25.68;58.43
40992;BME280;29633;49.168;9.848;2023-09-19T12:29:49;96749.56;;;25.83;58.01
40992;BME280;29633;49.168;9.848;2023-09-19T12:32:16;96750.94;;;25.92;58.07
40992;BME280;29633;49.168;9.848;2023-09-19T12:34:52;96749.69;;;25.94;57.93
40992;BME280;29633;49.168;9.848;2023-09-19T12:37:20;96751.50;;;25.94;57.93
40992;BME280;29633;49.168;9.848;2023-09-19T12:40:05;96752.41;;;25.88;57.75
40992;BME280;29633;49.168;9.848;2023-09-19T12:42:47;96744.44;;;25.88;57.75
40992;BME280;29633;49.168;9.848;2023-09-19T12:45:14;96754.63;;;25.91;57.64
40992;BME280;29633;49.168;9.848;2023-09-19T12:48:23;96741.50;;;25.96;57.45
40992;BME280;29633;49.168;9.848;2023-09-19T12:51:07;96742.81;;;26.05;57.33
40992;BME280;29633;49.168;9.848;2023-09-19T12:53:40;96735.47;;;26.07;56.87
40992;BME280;29633;49.168;9.848;2023-09-19T12:56:14;96742.38;;;26.08;56.74
40992;BME280;29633;49.168;9.848;2023-09-19T12:58:58;96737.88;;;26.09;56.78
40992;BME280;29633;49.168;9.848;2023-09-19T13:01:27;96732.19;;;26.05;56.79
40992;BME280;29633;49.168;9.848;2023-09-19T13:04:18;96736.03;;;26.09;56.09
40992;BME280;29633;49.168;9.848;2023-09-19T13:06:49;96729.16;;;26.02;56.29
40992;BME280;29633;49.168;9.848;2023-09-19T13:09:23;96726.13;;;25.98;56.39
40992;BME280;29633;49.168;9.848;2023-09-19T13:12:00;96735.16;;;25.97;55.92
40992;BME280;29633;49.168;9.848;2023-09-19T13:14:29;96726.13;;;25.98;56.12
40992;BME280;29633;49.168;9.848;2023-09-19T13:17:07;96724.22;;;26.05;55.78
40992;BME280;29633;49.168;9.848;2023-09-19T13:19:49;96730.06;;;26.14;55.82
40992;BME280;29633;49.168;9.848;2023-09-19T13:25:16;96732.75;;;26.32;55.95
40992;BME280;29633;49.168;9.848;2023-09-19T13:28:01;96734.75;;;26.36;56.08
40992;BME280;29633;49.168;9.848;2023-09-19T13:30:30;96728.69;;;26.48;56.04
40992;BME280;29633;49.168;9.848;2023-09-19T13:33:10;96736.91;;;26.58;55.72
40992;BME280;29633;49.168;9.848;2023-09-19T13:35:38;96733.97;;;26.66;55.09
40992;BME280;29633;49.168;9.848;2023-09-19T13:38:05;96730.03;;;26.68;54.97
40992;BME280;29633;49.168;9.848;2023-09-19T13:40:35;96725.06;;;26.72;54.71
40992;BME280;29633;49.168;9.848;2023-09-19T13:43:01;96725.22;;;26.77;54.57
40992;BME280;29633;49.168;9.848;2023-09-19T13:45:27;96724.16;;;26.78;54.17
40992;BME280;29633;49.168;9.848;2023-09-19T13:47:56;96725.78;;;26.79;54.27
40992;BME280;29633;49.168;9.848;2023-09-19T13:50:22;96724.69;;;26.86;54.14
40992;BME280;29633;49.168;9.848;2023-09-19T13:52:54;96729.09;;;26.92;53.96
40992;BME280;29633;49.168;9.848;2023-09-19T13:55:20;96719.41;;;26.98;53.95
40992;BME280;29633;49.168;9.848;2023-09-19T13:57:49;96719.78;;;27.02;54.11
40992;BME280;29633;49.168;9.848;2023-09-19T14:00:18;96712.31;;;26.92;55.08
40992;BME280;29633;49.168;9.848;2023-09-19T14:02:47;96717.19;;;26.95;54.28
40992;BME280;29633;49.168;9.848;2023-09-19T14:05:15;96719.72;;;26.90;54.05
40992;BME280;29633;49.168;9.848;2023-09-19T14:07:45;96725.97;;;26.84;53.32
40992;BME280;29633;49.168;9.848;2023-09-19T14:10:12;96719.19;;;26.81;53.58